Portada
METAR-TAF:

METAR-TAF

Aeropuertos :

Aeropuerto de Okadama

Sapporo, Japón

latitud: 43-07N, longitud: 141-23E, altitud: 8 m

Observación

El informe se hizo hace 1 hora y 0 minutos, a las 07:00 UTC
Viento 13 kt del norte-noroeste
Temperatura 16°C
Humedad 72%
Presión 1008 hPa
Visibilidad 10 km o más
Escasas nubes a una altura de 3000 ft
Cielo nuboso a una altura de 20000 ft

METAR: RJCO 240700Z 33013KT 9999 FEW030 BKN200 16/11 Q1008

Hora: 17:00 (08:00 UTC)


TAF: falta

Observaciones y pronósticos meteorológicos de más de 4000 aeropuertos (mensajes METAR y TAF).

Los puntos amarillos y rojos representan las estaciones disponibles.

Ponga el ratón en el punto deseado para ver el nombre de la estación.

Haga clic para ver las observaciones y los pronósticos meteorológicos.

Para cambiar el mapa : haga clic en los botones verdes con una cruz de color negro para hacer un zoom, en el botón verde con un guión para alejar o en las flechas verdes para mapas adyacentes.


METAR-TAF: